sensor_id;sensor_type;location;lat;lon;timestamp;P1;durP1;ratioP1;P2;durP2;ratioP2
20236;SDS011;10277;54.386;18.596;2022-12-31T00:00:23;20.77;;;10.63;;
20236;SDS011;10277;54.386;18.596;2022-12-31T00:05:46;18.33;;;10.13;;
20236;SDS011;10277;54.386;18.596;2022-12-31T00:10:49;19.20;;;10.33;;
20236;SDS011;10277;54.386;18.596;2022-12-31T00:15:52;19.87;;;10.60;;
20236;SDS011;10277;54.386;18.596;2022-12-31T00:20:55;14.67;;;9.10;;
20236;SDS011;10277;54.386;18.596;2022-12-31T00:26:02;18.90;;;10.37;;
20236;SDS011;10277;54.386;18.596;2022-12-31T00:31:11;19.67;;;9.33;;
20236;SDS011;10277;54.386;18.596;2022-12-31T00:41:21;17.60;;;9.30;;
20236;SDS011;10277;54.386;18.596;2022-12-31T00:46:25;18.63;;;10.70;;
20236;SDS011;10277;54.386;18.596;2022-12-31T00:51:28;17.27;;;9.47;;
20236;SDS011;10277;54.386;18.596;2022-12-31T00:56:32;15.80;;;9.27;;
20236;SDS011;10277;54.386;18.596;2022-12-31T01:01:36;19.07;;;10.17;;
20236;SDS011;10277;54.386;18.596;2022-12-31T01:06:41;16.93;;;9.93;;
20236;SDS011;10277;54.386;18.596;2022-12-31T01:11:45;18.03;;;9.50;;
20236;SDS011;10277;54.386;18.596;2022-12-31T01:16:49;16.97;;;8.57;;
20236;SDS011;10277;54.386;18.596;2022-12-31T01:21:53;20.07;;;9.70;;
20236;SDS011;10277;54.386;18.596;2022-12-31T01:26:56;18.40;;;9.97;;
20236;SDS011;10277;54.386;18.596;2022-12-31T01:32:00;17.73;;;9.63;;
20236;SDS011;10277;54.386;18.596;2022-12-31T01:37:03;17.10;;;8.90;;
20236;SDS011;10277;54.386;18.596;2022-12-31T01:42:08;15.87;;;9.40;;
20236;SDS011;10277;54.386;18.596;2022-12-31T01:47:14;18.33;;;9.40;;
20236;SDS011;10277;54.386;18.596;2022-12-31T01:52:26;15.63;;;8.40;;
20236;SDS011;10277;54.386;18.596;2022-12-31T01:57:31;15.07;;;9.07;;
20236;SDS011;10277;54.386;18.596;2022-12-31T02:02:34;16.83;;;8.87;;
20236;SDS011;10277;54.386;18.596;2022-12-31T02:07:37;14.23;;;8.90;;
20236;SDS011;10277;54.386;18.596;2022-12-31T02:12:41;15.37;;;8.90;;
20236;SDS011;10277;54.386;18.596;2022-12-31T02:17:50;14.50;;;8.73;;
20236;SDS011;10277;54.386;18.596;2022-12-31T02:33:56;16.43;;;9.63;;
20236;SDS011;10277;54.386;18.596;2022-12-31T02:39:04;15.27;;;8.90;;
20236;SDS011;10277;54.386;18.596;2022-12-31T02:44:19;15.77;;;8.73;;
20236;SDS011;10277;54.386;18.596;2022-12-31T02:54:33;14.57;;;8.50;;
20236;SDS011;10277;54.386;18.596;2022-12-31T03:05:23;18.00;;;7.83;;
20236;SDS011;10277;54.386;18.596;2022-12-31T03:10:27;15.70;;;7.87;;
20236;SDS011;10277;54.386;18.596;2022-12-31T03:15:33;14.47;;;8.07;;
20236;SDS011;10277;54.386;18.596;2022-12-31T03:20:49;12.17;;;7.47;;
20236;SDS011;10277;54.386;18.596;2022-12-31T03:26:11;12.23;;;6.77;;
20236;SDS011;10277;54.386;18.596;2022-12-31T03:31:14;10.00;;;6.80;;
20236;SDS011;10277;54.386;18.596;2022-12-31T03:36:18;10.67;;;6.90;;
20236;SDS011;10277;54.386;18.596;2022-12-31T03:41:21;12.00;;;6.77;;
20236;SDS011;10277;54.386;18.596;2022-12-31T03:46:24;10.67;;;6.53;;
20236;SDS011;10277;54.386;18.596;2022-12-31T03:51:27;9.23;;;6.33;;
20236;SDS011;10277;54.386;18.596;2022-12-31T03:56:30;11.77;;;6.37;;
20236;SDS011;10277;54.386;18.596;2022-12-31T04:01:33;9.43;;;6.10;;
20236;SDS011;10277;54.386;18.596;2022-12-31T04:06:36;9.37;;;5.20;;
20236;SDS011;10277;54.386;18.596;2022-12-31T04:11:39;7.53;;;5.63;;
20236;SDS011;10277;54.386;18.596;2022-12-31T04:16:42;6.90;;;4.37;;
20236;SDS011;10277;54.386;18.596;2022-12-31T04:21:47;9.40;;;6.10;;
20236;SDS011;10277;54.386;18.596;2022-12-31T04:26:50;8.53;;;6.37;;
20236;SDS011;10277;54.386;18.596;2022-12-31T04:31:53;8.93;;;6.70;;
20236;SDS011;10277;54.386;18.596;2022-12-31T04:36:56;10.70;;;6.60;;
20236;SDS011;10277;54.386;18.596;2022-12-31T04:41:58;12.13;;;6.93;;
20236;SDS011;10277;54.386;18.596;2022-12-31T04:47:02;9.53;;;6.50;;
20236;SDS011;10277;54.386;18.596;2022-12-31T04:52:05;10.20;;;7.33;;
20236;SDS011;10277;54.386;18.596;2022-12-31T04:57:08;15.57;;;7.93;;
20236;SDS011;10277;54.386;18.596;2022-12-31T05:02:11;11.93;;;7.97;;
20236;SDS011;10277;54.386;18.596;2022-12-31T05:07:14;10.83;;;8.17;;
20236;SDS011;10277;54.386;18.596;2022-12-31T05:12:17;13.07;;;8.37;;
20236;SDS011;10277;54.386;18.596;2022-12-31T05:17:20;15.20;;;8.60;;
20236;SDS011;10277;54.386;18.596;2022-12-31T05:22:23;13.47;;;7.30;;
20236;SDS011;10277;54.386;18.596;2022-12-31T05:27:33;14.57;;;8.40;;
20236;SDS011;10277;54.386;18.596;2022-12-31T05:32:36;11.47;;;7.70;;
20236;SDS011;10277;54.386;18.596;2022-12-31T05:37:41;13.77;;;7.80;;
20236;SDS011;10277;54.386;18.596;2022-12-31T05:42:45;11.30;;;8.17;;
20236;SDS011;10277;54.386;18.596;2022-12-31T05:47:48;12.03;;;7.07;;
20236;SDS011;10277;54.386;18.596;2022-12-31T05:52:51;13.60;;;8.40;;
20236;SDS011;10277;54.386;18.596;2022-12-31T05:57:54;12.17;;;8.23;;
20236;SDS011;10277;54.386;18.596;2022-12-31T06:02:57;11.47;;;8.07;;
20236;SDS011;10277;54.386;18.596;2022-12-31T06:08:00;11.87;;;8.20;;
20236;SDS011;10277;54.386;18.596;2022-12-31T06:13:03;11.53;;;8.60;;
20236;SDS011;10277;54.386;18.596;2022-12-31T06:18:06;12.23;;;7.57;;
20236;SDS011;10277;54.386;18.596;2022-12-31T06:23:09;11.97;;;8.10;;
20236;SDS011;10277;54.386;18.596;2022-12-31T06:28:13;18.20;;;12.70;;
20236;SDS011;10277;54.386;18.596;2022-12-31T06:33:22;10.57;;;8.07;;
20236;SDS011;10277;54.386;18.596;2022-12-31T06:38:25;12.63;;;8.20;;
20236;SDS011;10277;54.386;18.596;2022-12-31T06:43:29;14.60;;;8.37;;
20236;SDS011;10277;54.386;18.596;2022-12-31T06:48:32;13.20;;;8.37;;
20236;SDS011;10277;54.386;18.596;2022-12-31T06:53:35;9.60;;;7.80;;
20236;SDS011;10277;54.386;18.596;2022-12-31T06:58:39;11.93;;;8.00;;
20236;SDS011;10277;54.386;18.596;2022-12-31T07:03:44;12.47;;;8.60;;
20236;SDS011;10277;54.386;18.596;2022-12-31T07:09:02;10.20;;;7.80;;
20236;SDS011;10277;54.386;18.596;2022-12-31T07:14:15;11.17;;;7.63;;
20236;SDS011;10277;54.386;18.596;2022-12-31T07:24:58;11.50;;;7.70;;
20236;SDS011;10277;54.386;18.596;2022-12-31T07:30:08;10.83;;;7.80;;
20236;SDS011;10277;54.386;18.596;2022-12-31T07:51:38;9.37;;;7.07;;
20236;SDS011;10277;54.386;18.596;2022-12-31T07:56:41;10.60;;;7.47;;
20236;SDS011;10277;54.386;18.596;2022-12-31T08:12:30;9.97;;;6.77;;
20236;SDS011;10277;54.386;18.596;2022-12-31T08:17:35;8.27;;;6.30;;
20236;SDS011;10277;54.386;18.596;2022-12-31T08:22:53;12.00;;;6.47;;
20236;SDS011;10277;54.386;18.596;2022-12-31T08:49:41;7.83;;;5.57;;
20236;SDS011;10277;54.386;18.596;2022-12-31T08:54:45;10.27;;;6.30;;
20236;SDS011;10277;54.386;18.596;2022-12-31T08:59:52;8.10;;;5.93;;
20236;SDS011;10277;54.386;18.596;2022-12-31T09:15:35;7.67;;;5.77;;
20236;SDS011;10277;54.386;18.596;2022-12-31T09:20:42;8.77;;;5.80;;
20236;SDS011;10277;54.386;18.596;2022-12-31T09:36:15;9.53;;;6.63;;
20236;SDS011;10277;54.386;18.596;2022-12-31T09:52:46;7.90;;;6.03;;
20236;SDS011;10277;54.386;18.596;2022-12-31T10:03:27;9.77;;;6.57;;
20236;SDS011;10277;54.386;18.596;2022-12-31T10:51:10;15.40;;;10.03;;
20236;SDS011;10277;54.386;18.596;2022-12-31T11:12:31;23.43;;;17.23;;
20236;SDS011;10277;54.386;18.596;2022-12-31T11:23:00;12.20;;;9.60;;
20236;SDS011;10277;54.386;18.596;2022-12-31T11:38:52;21.00;;;16.23;;
20236;SDS011;10277;54.386;18.596;2022-12-31T11:44:17;17.23;;;11.57;;
20236;SDS011;10277;54.386;18.596;2022-12-31T11:49:46;12.13;;;9.47;;
20236;SDS011;10277;54.386;18.596;2022-12-31T12:05:19;20.27;;;15.57;;
20236;SDS011;10277;54.386;18.596;2022-12-31T12:10:25;12.77;;;9.27;;
20236;SDS011;10277;54.386;18.596;2022-12-31T12:15:38;13.57;;;9.53;;
20236;SDS011;10277;54.386;18.596;2022-12-31T12:20:44;11.37;;;9.43;;
20236;SDS011;10277;54.386;18.596;2022-12-31T12:25:47;9.93;;;8.20;;
20236;SDS011;10277;54.386;18.596;2022-12-31T12:30:58;11.00;;;9.10;;
20236;SDS011;10277;54.386;18.596;2022-12-31T12:36:10;10.93;;;8.50;;
20236;SDS011;10277;54.386;18.596;2022-12-31T12:41:22;9.10;;;6.93;;
20236;SDS011;10277;54.386;18.596;2022-12-31T12:46:34;6.13;;;5.20;;
20236;SDS011;10277;54.386;18.596;2022-12-31T12:57:17;6.63;;;5.13;;
20236;SDS011;10277;54.386;18.596;2022-12-31T13:23:42;38.67;;;28.20;;
20236;SDS011;10277;54.386;18.596;2022-12-31T13:28:59;56.43;;;31.80;;
20236;SDS011;10277;54.386;18.596;2022-12-31T13:34:20;8.93;;;8.03;;
20236;SDS011;10277;54.386;18.596;2022-12-31T13:39:27;10.50;;;8.57;;
20236;SDS011;10277;54.386;18.596;2022-12-31T13:44:38;10.60;;;7.77;;
20236;SDS011;10277;54.386;18.596;2022-12-31T13:50:13;20.60;;;15.00;;
20236;SDS011;10277;54.386;18.596;2022-12-31T13:55:50;12.60;;;10.77;;
20236;SDS011;10277;54.386;18.596;2022-12-31T14:17:46;11.80;;;9.47;;
20236;SDS011;10277;54.386;18.596;2022-12-31T14:23:01;10.17;;;9.03;;
20236;SDS011;10277;54.386;18.596;2022-12-31T14:28:24;10.87;;;7.87;;
20236;SDS011;10277;54.386;18.596;2022-12-31T14:33:38;30.97;;;26.77;;
20236;SDS011;10277;54.386;18.596;2022-12-31T14:55:40;18.97;;;14.43;;
20236;SDS011;10277;54.386;18.596;2022-12-31T15:00:25;8.90;;;6.90;;
20236;SDS011;10277;54.386;18.596;2022-12-31T15:05:34;7.30;;;6.07;;
20236;SDS011;10277;54.386;18.596;2022-12-31T15:16:36;29.70;;;22.37;;
20236;SDS011;10277;54.386;18.596;2022-12-31T15:21:52;23.57;;;16.47;;
20236;SDS011;10277;54.386;18.596;2022-12-31T15:27:00;9.23;;;8.20;;
20236;SDS011;10277;54.386;18.596;2022-12-31T15:32:06;8.83;;;6.70;;
20236;SDS011;10277;54.386;18.596;2022-12-31T15:42:47;8.77;;;5.63;;
20236;SDS011;10277;54.386;18.596;2022-12-31T15:47:55;5.93;;;5.33;;
20236;SDS011;10277;54.386;18.596;2022-12-31T15:52:59;8.70;;;6.90;;
20236;SDS011;10277;54.386;18.596;2022-12-31T15:58:06;6.80;;;5.87;;
20236;SDS011;10277;54.386;18.596;2022-12-31T16:03:31;9.50;;;7.50;;
20236;SDS011;10277;54.386;18.596;2022-12-31T16:08:34;7.30;;;6.50;;
20236;SDS011;10277;54.386;18.596;2022-12-31T16:13:40;25.30;;;15.23;;
20236;SDS011;10277;54.386;18.596;2022-12-31T16:18:44;11.83;;;9.53;;
20236;SDS011;10277;54.386;18.596;2022-12-31T16:23:50;7.93;;;6.83;;
20236;SDS011;10277;54.386;18.596;2022-12-31T16:28:55;11.87;;;9.07;;
20236;SDS011;10277;54.386;18.596;2022-12-31T16:34:02;9.77;;;7.33;;
20236;SDS011;10277;54.386;18.596;2022-12-31T16:44:25;8.47;;;4.87;;
20236;SDS011;10277;54.386;18.596;2022-12-31T16:49:29;11.27;;;8.90;;
20236;SDS011;10277;54.386;18.596;2022-12-31T16:54:38;12.33;;;9.40;;
20236;SDS011;10277;54.386;18.596;2022-12-31T16:59:43;6.73;;;5.60;;
20236;SDS011;10277;54.386;18.596;2022-12-31T17:04:47;7.10;;;5.77;;
20236;SDS011;10277;54.386;18.596;2022-12-31T17:15:15;7.97;;;5.87;;
20236;SDS011;10277;54.386;18.596;2022-12-31T17:20:26;5.67;;;4.97;;
20236;SDS011;10277;54.386;18.596;2022-12-31T17:25:31;6.63;;;5.03;;
20236;SDS011;10277;54.386;18.596;2022-12-31T17:30:36;9.77;;;8.77;;
20236;SDS011;10277;54.386;18.596;2022-12-31T17:35:44;7.20;;;6.50;;
20236;SDS011;10277;54.386;18.596;2022-12-31T17:40:52;7.27;;;5.37;;
20236;SDS011;10277;54.386;18.596;2022-12-31T17:45:57;13.53;;;11.37;;
20236;SDS011;10277;54.386;18.596;2022-12-31T17:51:00;5.27;;;4.63;;
20236;SDS011;10277;54.386;18.596;2022-12-31T17:56:05;6.43;;;4.37;;
20236;SDS011;10277;54.386;18.596;2022-12-31T18:01:10;7.50;;;5.47;;
20236;SDS011;10277;54.386;18.596;2022-12-31T18:06:16;15.57;;;11.07;;
20236;SDS011;10277;54.386;18.596;2022-12-31T18:11:21;10.10;;;7.23;;
20236;SDS011;10277;54.386;18.596;2022-12-31T18:16:25;6.90;;;4.50;;
20236;SDS011;10277;54.386;18.596;2022-12-31T18:21:30;3.77;;;3.00;;
20236;SDS011;10277;54.386;18.596;2022-12-31T18:26:35;6.63;;;4.13;;
20236;SDS011;10277;54.386;18.596;2022-12-31T18:31:38;12.83;;;8.93;;
20236;SDS011;10277;54.386;18.596;2022-12-31T18:36:44;6.80;;;4.07;;
20236;SDS011;10277;54.386;18.596;2022-12-31T18:41:47;5.47;;;3.50;;
20236;SDS011;10277;54.386;18.596;2022-12-31T18:46:51;5.73;;;3.30;;
20236;SDS011;10277;54.386;18.596;2022-12-31T18:51:56;7.67;;;5.00;;
20236;SDS011;10277;54.386;18.596;2022-12-31T18:57:00;17.57;;;15.83;;
20236;SDS011;10277;54.386;18.596;2022-12-31T19:02:03;4.67;;;2.93;;
20236;SDS011;10277;54.386;18.596;2022-12-31T19:07:07;3.97;;;3.00;;
20236;SDS011;10277;54.386;18.596;2022-12-31T19:12:10;3.90;;;3.23;;
20236;SDS011;10277;54.386;18.596;2022-12-31T19:17:15;4.80;;;3.80;;
20236;SDS011;10277;54.386;18.596;2022-12-31T19:22:18;4.13;;;2.60;;
20236;SDS011;10277;54.386;18.596;2022-12-31T19:27:23;3.23;;;2.27;;
20236;SDS011;10277;54.386;18.596;2022-12-31T19:32:28;5.50;;;4.27;;
20236;SDS011;10277;54.386;18.596;2022-12-31T19:37:31;6.63;;;2.90;;
20236;SDS011;10277;54.386;18.596;2022-12-31T19:42:35;7.43;;;4.40;;
20236;SDS011;10277;54.386;18.596;2022-12-31T19:47:38;5.60;;;3.30;;
20236;SDS011;10277;54.386;18.596;2022-12-31T19:52:41;5.00;;;2.87;;
20236;SDS011;10277;54.386;18.596;2022-12-31T19:57:45;4.83;;;3.00;;
20236;SDS011;10277;54.386;18.596;2022-12-31T20:02:49;3.97;;;3.20;;
20236;SDS011;10277;54.386;18.596;2022-12-31T20:07:52;4.10;;;2.60;;
20236;SDS011;10277;54.386;18.596;2022-12-31T20:12:55;6.73;;;4.40;;
20236;SDS011;10277;54.386;18.596;2022-12-31T20:17:58;6.10;;;4.03;;
20236;SDS011;10277;54.386;18.596;2022-12-31T20:23:02;4.80;;;3.00;;
20236;SDS011;10277;54.386;18.596;2022-12-31T20:28:05;3.33;;;2.27;;
20236;SDS011;10277;54.386;18.596;2022-12-31T20:33:08;5.40;;;3.40;;
20236;SDS011;10277;54.386;18.596;2022-12-31T20:38:18;3.23;;;2.50;;
20236;SDS011;10277;54.386;18.596;2022-12-31T20:43:22;5.13;;;3.03;;
20236;SDS011;10277;54.386;18.596;2022-12-31T20:48:25;7.63;;;3.40;;
20236;SDS011;10277;54.386;18.596;2022-12-31T20:53:28;5.03;;;3.17;;
20236;SDS011;10277;54.386;18.596;2022-12-31T20:58:32;8.10;;;4.90;;
20236;SDS011;10277;54.386;18.596;2022-12-31T21:03:35;5.03;;;4.30;;
20236;SDS011;10277;54.386;18.596;2022-12-31T21:09:00;6.27;;;5.17;;
20236;SDS011;10277;54.386;18.596;2022-12-31T21:14:07;13.23;;;8.10;;
20236;SDS011;10277;54.386;18.596;2022-12-31T21:19:11;19.33;;;14.97;;
20236;SDS011;10277;54.386;18.596;2022-12-31T21:24:14;7.37;;;4.90;;
20236;SDS011;10277;54.386;18.596;2022-12-31T21:29:25;8.47;;;5.60;;
20236;SDS011;10277;54.386;18.596;2022-12-31T21:34:35;6.87;;;4.60;;
20236;SDS011;10277;54.386;18.596;2022-12-31T21:39:41;7.37;;;5.73;;
20236;SDS011;10277;54.386;18.596;2022-12-31T21:44:44;8.23;;;6.10;;
20236;SDS011;10277;54.386;18.596;2022-12-31T21:49:47;12.90;;;8.67;;
20236;SDS011;10277;54.386;18.596;2022-12-31T21:54:54;6.93;;;5.83;;
20236;SDS011;10277;54.386;18.596;2022-12-31T22:00:17;10.30;;;6.73;;
20236;SDS011;10277;54.386;18.596;2022-12-31T22:05:45;11.27;;;9.20;;
20236;SDS011;10277;54.386;18.596;2022-12-31T22:10:50;6.00;;;3.67;;
20236;SDS011;10277;54.386;18.596;2022-12-31T22:15:55;8.60;;;5.63;;
20236;SDS011;10277;54.386;18.596;2022-12-31T22:21:11;8.37;;;4.87;;
20236;SDS011;10277;54.386;18.596;2022-12-31T22:26:23;10.07;;;7.10;;
20236;SDS011;10277;54.386;18.596;2022-12-31T22:31:28;16.03;;;12.70;;
20236;SDS011;10277;54.386;18.596;2022-12-31T22:36:31;9.73;;;6.43;;
20236;SDS011;10277;54.386;18.596;2022-12-31T22:41:34;5.83;;;4.67;;
20236;SDS011;10277;54.386;18.596;2022-12-31T22:46:38;13.80;;;11.07;;
20236;SDS011;10277;54.386;18.596;2022-12-31T22:51:41;7.50;;;5.47;;
20236;SDS011;10277;54.386;18.596;2022-12-31T22:56:58;6.60;;;4.50;;
20236;SDS011;10277;54.386;18.596;2022-12-31T23:02:02;47.03;;;30.90;;
20236;SDS011;10277;54.386;18.596;2022-12-31T23:07:06;113.87;;;85.70;;
20236;SDS011;10277;54.386;18.596;2022-12-31T23:12:09;104.53;;;76.93;;
20236;SDS011;10277;54.386;18.596;2022-12-31T23:17:17;111.57;;;81.97;;
20236;SDS011;10277;54.386;18.596;2022-12-31T23:22:44;102.33;;;71.27;;
20236;SDS011;10277;54.386;18.596;2022-12-31T23:28:07;69.77;;;51.80;;
20236;SDS011;10277;54.386;18.596;2022-12-31T23:33:16;67.17;;;49.17;;
20236;SDS011;10277;54.386;18.596;2022-12-31T23:38:20;48.73;;;34.70;;
20236;SDS011;10277;54.386;18.596;2022-12-31T23:43:23;31.07;;;23.60;;
20236;SDS011;10277;54.386;18.596;2022-12-31T23:48:26;87.17;;;63.17;;
20236;SDS011;10277;54.386;18.596;2022-12-31T23:53:29;25.90;;;18.83;;
20236;SDS011;10277;54.386;18.596;2022-12-31T23:58:32;30.57;;;21.57;;
